sensor_id;sensor_type;location;lat;lon;timestamp;P1;durP1;ratioP1;P2;durP2;ratioP2
11090;SDS011;5599;52.210;21.046;2022-11-03T00:01:35;12.43;;;6.80;;
11090;SDS011;5599;52.210;21.046;2022-11-03T00:04:07;12.17;;;6.87;;
11090;SDS011;5599;52.210;21.046;2022-11-03T00:06:38;11.20;;;6.03;;
11090;SDS011;5599;52.210;21.046;2022-11-03T00:09:09;10.03;;;5.73;;
11090;SDS011;5599;52.210;21.046;2022-11-03T00:11:39;7.50;;;5.13;;
11090;SDS011;5599;52.210;21.046;2022-11-03T00:14:10;10.60;;;5.77;;
11090;SDS011;5599;52.210;21.046;2022-11-03T00:16:40;10.83;;;5.80;;
11090;SDS011;5599;52.210;21.046;2022-11-03T00:19:12;8.57;;;5.73;;
11090;SDS011;5599;52.210;21.046;2022-11-03T00:21:43;11.10;;;6.00;;
11090;SDS011;5599;52.210;21.046;2022-11-03T00:24:13;11.47;;;6.07;;
11090;SDS011;5599;52.210;21.046;2022-11-03T00:26:42;9.03;;;5.43;;
11090;SDS011;5599;52.210;21.046;2022-11-03T00:29:13;10.30;;;5.73;;
11090;SDS011;5599;52.210;21.046;2022-11-03T00:31:43;11.77;;;5.07;;
11090;SDS011;5599;52.210;21.046;2022-11-03T00:34:14;8.93;;;5.63;;
11090;SDS011;5599;52.210;21.046;2022-11-03T00:36:43;13.03;;;5.10;;
11090;SDS011;5599;52.210;21.046;2022-11-03T00:39:12;8.80;;;5.47;;
11090;SDS011;5599;52.210;21.046;2022-11-03T00:41:41;6.87;;;4.90;;
11090;SDS011;5599;52.210;21.046;2022-11-03T00:44:11;10.20;;;5.40;;
11090;SDS011;5599;52.210;21.046;2022-11-03T00:46:40;8.07;;;4.97;;
11090;SDS011;5599;52.210;21.046;2022-11-03T00:49:09;8.33;;;5.07;;
11090;SDS011;5599;52.210;21.046;2022-11-03T00:51:39;9.97;;;5.93;;
11090;SDS011;5599;52.210;21.046;2022-11-03T00:54:08;11.73;;;5.97;;
11090;SDS011;5599;52.210;21.046;2022-11-03T00:56:38;9.17;;;5.23;;
11090;SDS011;5599;52.210;21.046;2022-11-03T00:59:10;9.90;;;5.47;;
11090;SDS011;5599;52.210;21.046;2022-11-03T01:01:40;7.43;;;4.87;;
11090;SDS011;5599;52.210;21.046;2022-11-03T01:04:13;9.63;;;4.43;;
11090;SDS011;5599;52.210;21.046;2022-11-03T01:07:02;8.27;;;4.67;;
11090;SDS011;5599;52.210;21.046;2022-11-03T01:09:34;7.87;;;4.37;;
11090;SDS011;5599;52.210;21.046;2022-11-03T01:12:05;16.13;;;4.93;;
11090;SDS011;5599;52.210;21.046;2022-11-03T01:14:37;9.53;;;5.10;;
11090;SDS011;5599;52.210;21.046;2022-11-03T01:17:08;10.33;;;5.53;;
11090;SDS011;5599;52.210;21.046;2022-11-03T01:19:38;10.80;;;5.07;;
11090;SDS011;5599;52.210;21.046;2022-11-03T01:22:09;10.40;;;5.20;;
11090;SDS011;5599;52.210;21.046;2022-11-03T01:24:38;6.87;;;4.43;;
11090;SDS011;5599;52.210;21.046;2022-11-03T01:27:09;11.00;;;4.70;;
11090;SDS011;5599;52.210;21.046;2022-11-03T01:29:39;7.13;;;4.53;;
11090;SDS011;5599;52.210;21.046;2022-11-03T01:32:09;11.60;;;4.70;;
11090;SDS011;5599;52.210;21.046;2022-11-03T01:34:38;12.57;;;5.13;;
11090;SDS011;5599;52.210;21.046;2022-11-03T01:37:09;6.60;;;4.53;;
11090;SDS011;5599;52.210;21.046;2022-11-03T01:39:38;6.90;;;4.50;;
11090;SDS011;5599;52.210;21.046;2022-11-03T01:42:09;9.50;;;4.40;;
11090;SDS011;5599;52.210;21.046;2022-11-03T01:44:41;7.67;;;3.80;;
11090;SDS011;5599;52.210;21.046;2022-11-03T01:47:13;6.80;;;4.10;;
11090;SDS011;5599;52.210;21.046;2022-11-03T01:49:49;8.37;;;4.63;;
11090;SDS011;5599;52.210;21.046;2022-11-03T01:52:25;7.03;;;4.03;;
11090;SDS011;5599;52.210;21.046;2022-11-03T01:54:57;8.23;;;4.60;;
11090;SDS011;5599;52.210;21.046;2022-11-03T01:57:31;6.27;;;4.13;;
11090;SDS011;5599;52.210;21.046;2022-11-03T02:00:05;7.13;;;4.60;;
11090;SDS011;5599;52.210;21.046;2022-11-03T02:02:38;9.80;;;5.10;;
11090;SDS011;5599;52.210;21.046;2022-11-03T02:05:07;5.37;;;4.00;;
11090;SDS011;5599;52.210;21.046;2022-11-03T02:07:41;9.50;;;4.87;;
11090;SDS011;5599;52.210;21.046;2022-11-03T02:10:16;6.47;;;4.50;;
11090;SDS011;5599;52.210;21.046;2022-11-03T02:12:46;8.90;;;4.53;;
11090;SDS011;5599;52.210;21.046;2022-11-03T02:15:16;8.77;;;5.07;;
11090;SDS011;5599;52.210;21.046;2022-11-03T02:17:47;7.17;;;5.10;;
11090;SDS011;5599;52.210;21.046;2022-11-03T02:20:20;9.63;;;5.17;;
11090;SDS011;5599;52.210;21.046;2022-11-03T02:23:10;6.90;;;5.20;;
11090;SDS011;5599;52.210;21.046;2022-11-03T02:25:50;11.23;;;5.40;;
11090;SDS011;5599;52.210;21.046;2022-11-03T02:28:22;9.03;;;4.90;;
11090;SDS011;5599;52.210;21.046;2022-11-03T02:30:57;8.33;;;5.70;;
11090;SDS011;5599;52.210;21.046;2022-11-03T02:33:34;12.10;;;5.20;;
11090;SDS011;5599;52.210;21.046;2022-11-03T02:36:10;11.87;;;6.17;;
11090;SDS011;5599;52.210;21.046;2022-11-03T02:38:44;8.53;;;5.47;;
11090;SDS011;5599;52.210;21.046;2022-11-03T02:41:18;11.17;;;6.23;;
11090;SDS011;5599;52.210;21.046;2022-11-03T02:43:50;14.80;;;6.10;;
11090;SDS011;5599;52.210;21.046;2022-11-03T02:46:21;11.47;;;6.40;;
11090;SDS011;5599;52.210;21.046;2022-11-03T02:48:53;8.17;;;6.70;;
11090;SDS011;5599;52.210;21.046;2022-11-03T02:51:23;10.13;;;6.23;;
11090;SDS011;5599;52.210;21.046;2022-11-03T02:53:55;15.37;;;6.90;;
11090;SDS011;5599;52.210;21.046;2022-11-03T02:56:33;11.73;;;6.87;;
11090;SDS011;5599;52.210;21.046;2022-11-03T02:59:10;10.03;;;6.90;;
11090;SDS011;5599;52.210;21.046;2022-11-03T03:01:43;10.57;;;6.77;;
11090;SDS011;5599;52.210;21.046;2022-11-03T03:04:20;12.33;;;7.47;;
11090;SDS011;5599;52.210;21.046;2022-11-03T03:06:55;15.20;;;7.07;;
11090;SDS011;5599;52.210;21.046;2022-11-03T03:09:29;10.87;;;7.50;;
11090;SDS011;5599;52.210;21.046;2022-11-03T03:12:04;12.97;;;7.97;;
11090;SDS011;5599;52.210;21.046;2022-11-03T03:14:36;11.83;;;7.07;;
11090;SDS011;5599;52.210;21.046;2022-11-03T03:17:08;13.67;;;7.53;;
11090;SDS011;5599;52.210;21.046;2022-11-03T03:19:45;13.87;;;7.77;;
11090;SDS011;5599;52.210;21.046;2022-11-03T03:22:19;13.13;;;7.53;;
11090;SDS011;5599;52.210;21.046;2022-11-03T03:24:53;10.63;;;6.93;;
11090;SDS011;5599;52.210;21.046;2022-11-03T03:27:30;13.33;;;7.70;;
11090;SDS011;5599;52.210;21.046;2022-11-03T03:30:02;14.03;;;7.87;;
11090;SDS011;5599;52.210;21.046;2022-11-03T03:32:34;10.97;;;7.47;;
11090;SDS011;5599;52.210;21.046;2022-11-03T03:35:06;11.30;;;6.93;;
11090;SDS011;5599;52.210;21.046;2022-11-03T03:37:39;11.33;;;7.90;;
11090;SDS011;5599;52.210;21.046;2022-11-03T03:40:14;10.87;;;7.67;;
11090;SDS011;5599;52.210;21.046;2022-11-03T03:42:51;12.10;;;8.10;;
11090;SDS011;5599;52.210;21.046;2022-11-03T03:45:21;11.00;;;7.30;;
11090;SDS011;5599;52.210;21.046;2022-11-03T03:47:53;12.03;;;7.53;;
11090;SDS011;5599;52.210;21.046;2022-11-03T03:50:24;10.37;;;7.67;;
11090;SDS011;5599;52.210;21.046;2022-11-03T03:52:56;13.57;;;8.20;;
11090;SDS011;5599;52.210;21.046;2022-11-03T03:55:31;11.60;;;7.27;;
11090;SDS011;5599;52.210;21.046;2022-11-03T03:58:04;18.67;;;8.63;;
11090;SDS011;5599;52.210;21.046;2022-11-03T04:00:35;13.37;;;7.47;;
11090;SDS011;5599;52.210;21.046;2022-11-03T04:03:07;13.60;;;8.17;;
11090;SDS011;5599;52.210;21.046;2022-11-03T04:05:45;13.70;;;8.10;;
11090;SDS011;5599;52.210;21.046;2022-11-03T04:08:14;11.83;;;8.07;;
11090;SDS011;5599;52.210;21.046;2022-11-03T04:10:44;19.17;;;8.60;;
11090;SDS011;5599;52.210;21.046;2022-11-03T04:13:29;14.03;;;7.67;;
11090;SDS011;5599;52.210;21.046;2022-11-03T04:16:16;12.17;;;7.60;;
11090;SDS011;5599;52.210;21.046;2022-11-03T04:19:03;10.03;;;7.00;;
11090;SDS011;5599;52.210;21.046;2022-11-03T04:21:49;15.17;;;7.80;;
11090;SDS011;5599;52.210;21.046;2022-11-03T04:24:36;13.30;;;7.67;;
11090;SDS011;5599;52.210;21.046;2022-11-03T04:27:10;12.97;;;8.10;;
11090;SDS011;5599;52.210;21.046;2022-11-03T04:29:56;13.57;;;7.83;;
11090;SDS011;5599;52.210;21.046;2022-11-03T04:32:29;10.30;;;7.63;;
11090;SDS011;5599;52.210;21.046;2022-11-03T04:34:58;12.93;;;7.40;;
11090;SDS011;5599;52.210;21.046;2022-11-03T04:37:28;12.40;;;8.27;;
11090;SDS011;5599;52.210;21.046;2022-11-03T04:39:57;15.50;;;9.20;;
11090;SDS011;5599;52.210;21.046;2022-11-03T04:42:29;12.73;;;8.70;;
11090;SDS011;5599;52.210;21.046;2022-11-03T04:45:05;10.97;;;7.60;;
11090;SDS011;5599;52.210;21.046;2022-11-03T04:47:44;12.13;;;7.97;;
11090;SDS011;5599;52.210;21.046;2022-11-03T04:50:14;13.33;;;8.27;;
11090;SDS011;5599;52.210;21.046;2022-11-03T04:52:46;15.50;;;8.33;;
11090;SDS011;5599;52.210;21.046;2022-11-03T04:55:16;18.27;;;9.40;;
11090;SDS011;5599;52.210;21.046;2022-11-03T04:57:48;12.90;;;8.83;;
11090;SDS011;5599;52.210;21.046;2022-11-03T05:00:23;14.27;;;8.43;;
11090;SDS011;5599;52.210;21.046;2022-11-03T05:02:52;12.13;;;8.37;;
11090;SDS011;5599;52.210;21.046;2022-11-03T05:05:22;13.17;;;8.50;;
11090;SDS011;5599;52.210;21.046;2022-11-03T05:07:54;15.37;;;8.80;;
11090;SDS011;5599;52.210;21.046;2022-11-03T05:10:26;17.80;;;8.20;;
11090;SDS011;5599;52.210;21.046;2022-11-03T05:12:57;14.17;;;8.93;;
11090;SDS011;5599;52.210;21.046;2022-11-03T05:15:31;16.63;;;8.57;;
11090;SDS011;5599;52.210;21.046;2022-11-03T05:18:11;12.70;;;8.33;;
11090;SDS011;5599;52.210;21.046;2022-11-03T05:20:45;11.93;;;8.27;;
11090;SDS011;5599;52.210;21.046;2022-11-03T05:23:18;11.50;;;8.60;;
11090;SDS011;5599;52.210;21.046;2022-11-03T05:25:49;12.43;;;9.03;;
11090;SDS011;5599;52.210;21.046;2022-11-03T05:28:23;11.23;;;8.67;;
11090;SDS011;5599;52.210;21.046;2022-11-03T05:30:56;14.30;;;8.70;;
11090;SDS011;5599;52.210;21.046;2022-11-03T05:33:27;15.13;;;9.23;;
11090;SDS011;5599;52.210;21.046;2022-11-03T05:35:57;13.50;;;7.90;;
11090;SDS011;5599;52.210;21.046;2022-11-03T05:38:29;12.23;;;8.23;;
11090;SDS011;5599;52.210;21.046;2022-11-03T05:41:00;14.60;;;9.20;;
11090;SDS011;5599;52.210;21.046;2022-11-03T05:43:29;12.13;;;8.27;;
11090;SDS011;5599;52.210;21.046;2022-11-03T05:46:00;13.50;;;9.20;;
11090;SDS011;5599;52.210;21.046;2022-11-03T05:48:31;16.63;;;9.30;;
11090;SDS011;5599;52.210;21.046;2022-11-03T05:51:09;15.03;;;8.57;;
11090;SDS011;5599;52.210;21.046;2022-11-03T05:53:47;13.13;;;8.37;;
11090;SDS011;5599;52.210;21.046;2022-11-03T05:56:20;12.93;;;8.67;;
11090;SDS011;5599;52.210;21.046;2022-11-03T05:58:52;11.60;;;8.07;;
11090;SDS011;5599;52.210;21.046;2022-11-03T06:01:25;11.50;;;8.63;;
11090;SDS011;5599;52.210;21.046;2022-11-03T06:03:58;12.83;;;8.37;;
11090;SDS011;5599;52.210;21.046;2022-11-03T06:06:29;13.23;;;8.27;;
11090;SDS011;5599;52.210;21.046;2022-11-03T06:09:08;15.87;;;8.60;;
11090;SDS011;5599;52.210;21.046;2022-11-03T06:11:43;14.17;;;8.10;;
11090;SDS011;5599;52.210;21.046;2022-11-03T06:14:15;14.73;;;9.20;;
11090;SDS011;5599;52.210;21.046;2022-11-03T06:16:53;13.97;;;8.13;;
11090;SDS011;5599;52.210;21.046;2022-11-03T06:19:25;14.10;;;7.87;;
11090;SDS011;5599;52.210;21.046;2022-11-03T06:21:57;15.93;;;8.80;;
11090;SDS011;5599;52.210;21.046;2022-11-03T06:24:30;13.47;;;8.00;;
11090;SDS011;5599;52.210;21.046;2022-11-03T06:27:01;15.50;;;8.10;;
11090;SDS011;5599;52.210;21.046;2022-11-03T06:29:31;15.80;;;8.40;;
11090;SDS011;5599;52.210;21.046;2022-11-03T06:32:03;14.20;;;8.73;;
11090;SDS011;5599;52.210;21.046;2022-11-03T06:34:40;16.23;;;8.47;;
11090;SDS011;5599;52.210;21.046;2022-11-03T06:37:21;12.67;;;7.93;;
11090;SDS011;5599;52.210;21.046;2022-11-03T06:39:54;17.37;;;8.80;;
11090;SDS011;5599;52.210;21.046;2022-11-03T06:42:28;12.47;;;8.50;;
11090;SDS011;5599;52.210;21.046;2022-11-03T06:45:01;15.43;;;7.83;;
11090;SDS011;5599;52.210;21.046;2022-11-03T06:47:41;14.07;;;7.13;;
11090;SDS011;5599;52.210;21.046;2022-11-03T06:50:18;10.33;;;7.17;;
11090;SDS011;5599;52.210;21.046;2022-11-03T06:52:50;12.27;;;7.47;;
11090;SDS011;5599;52.210;21.046;2022-11-03T06:55:22;16.50;;;7.70;;
11090;SDS011;5599;52.210;21.046;2022-11-03T06:57:54;11.43;;;7.90;;
11090;SDS011;5599;52.210;21.046;2022-11-03T07:00:27;14.93;;;7.20;;
11090;SDS011;5599;52.210;21.046;2022-11-03T07:03:04;10.83;;;6.93;;
11090;SDS011;5599;52.210;21.046;2022-11-03T07:05:36;11.70;;;6.70;;
11090;SDS011;5599;52.210;21.046;2022-11-03T07:08:14;12.07;;;6.67;;
11090;SDS011;5599;52.210;21.046;2022-11-03T07:10:50;15.73;;;6.60;;
11090;SDS011;5599;52.210;21.046;2022-11-03T07:13:29;10.80;;;6.13;;
11090;SDS011;5599;52.210;21.046;2022-11-03T07:16:00;10.73;;;6.10;;
11090;SDS011;5599;52.210;21.046;2022-11-03T07:18:33;19.17;;;6.60;;
11090;SDS011;5599;52.210;21.046;2022-11-03T07:21:23;12.40;;;6.67;;
11090;SDS011;5599;52.210;21.046;2022-11-03T07:23:57;13.77;;;6.20;;
11090;SDS011;5599;52.210;21.046;2022-11-03T07:26:31;11.27;;;6.07;;
11090;SDS011;5599;52.210;21.046;2022-11-03T07:29:01;12.13;;;5.73;;
11090;SDS011;5599;52.210;21.046;2022-11-03T07:31:31;8.33;;;5.70;;
11090;SDS011;5599;52.210;21.046;2022-11-03T07:34:04;9.00;;;5.55;;
11090;SDS011;5599;52.210;21.046;2022-11-03T07:36:39;10.80;;;5.88;;
11090;SDS011;5599;52.210;21.046;2022-11-03T07:39:12;8.48;;;5.75;;
11090;SDS011;5599;52.210;21.046;2022-11-03T07:41:46;9.07;;;6.10;;
11090;SDS011;5599;52.210;21.046;2022-11-03T07:44:17;12.07;;;5.63;;
11090;SDS011;5599;52.210;21.046;2022-11-03T07:46:48;9.48;;;5.57;;
11090;SDS011;5599;52.210;21.046;2022-11-03T07:49:25;8.80;;;5.45;;
11090;SDS011;5599;52.210;21.046;2022-11-03T07:51:55;10.27;;;5.80;;
11090;SDS011;5599;52.210;21.046;2022-11-03T07:54:27;9.70;;;5.70;;
11090;SDS011;5599;52.210;21.046;2022-11-03T07:57:02;10.23;;;5.50;;
11090;SDS011;5599;52.210;21.046;2022-11-03T07:59:39;9.82;;;5.82;;
11090;SDS011;5599;52.210;21.046;2022-11-03T08:02:16;11.13;;;5.53;;
11090;SDS011;5599;52.210;21.046;2022-11-03T08:04:55;11.23;;;7.07;;
11090;SDS011;5599;52.210;21.046;2022-11-03T08:07:25;11.98;;;6.30;;
11090;SDS011;5599;52.210;21.046;2022-11-03T08:09:55;12.05;;;6.07;;
11090;SDS011;5599;52.210;21.046;2022-11-03T08:12:25;10.05;;;5.88;;
11090;SDS011;5599;52.210;21.046;2022-11-03T08:14:55;11.00;;;5.97;;
11090;SDS011;5599;52.210;21.046;2022-11-03T08:17:25;15.07;;;6.43;;
11090;SDS011;5599;52.210;21.046;2022-11-03T08:19:56;10.25;;;6.13;;
11090;SDS011;5599;52.210;21.046;2022-11-03T08:22:26;10.13;;;5.43;;
11090;SDS011;5599;52.210;21.046;2022-11-03T08:24:56;9.50;;;6.38;;
11090;SDS011;5599;52.210;21.046;2022-11-03T08:27:26;11.82;;;6.05;;
11090;SDS011;5599;52.210;21.046;2022-11-03T08:29:56;7.40;;;5.20;;
11090;SDS011;5599;52.210;21.046;2022-11-03T08:32:25;7.35;;;4.68;;
11090;SDS011;5599;52.210;21.046;2022-11-03T08:34:57;12.18;;;5.60;;
11090;SDS011;5599;52.210;21.046;2022-11-03T08:37:26;8.75;;;5.30;;
11090;SDS011;5599;52.210;21.046;2022-11-03T08:39:56;7.88;;;5.47;;
11090;SDS011;5599;52.210;21.046;2022-11-03T08:42:26;10.73;;;5.32;;
11090;SDS011;5599;52.210;21.046;2022-11-03T08:44:58;9.57;;;5.07;;
11090;SDS011;5599;52.210;21.046;2022-11-03T08:47:30;9.25;;;5.50;;
11090;SDS011;5599;52.210;21.046;2022-11-03T08:50:01;13.15;;;5.90;;
11090;SDS011;5599;52.210;21.046;2022-11-03T08:52:30;16.40;;;6.10;;
11090;SDS011;5599;52.210;21.046;2022-11-03T08:55:00;37.50;;;9.45;;
11090;SDS011;5599;52.210;21.046;2022-11-03T08:57:29;28.65;;;6.93;;
11090;SDS011;5599;52.210;21.046;2022-11-03T08:59:59;22.52;;;6.82;;
11090;SDS011;5599;52.210;21.046;2022-11-03T09:02:28;14.93;;;6.07;;
11090;SDS011;5599;52.210;21.046;2022-11-03T09:05:02;22.83;;;7.35;;
11090;SDS011;5599;52.210;21.046;2022-11-03T09:07:34;31.65;;;8.35;;
11090;SDS011;5599;52.210;21.046;2022-11-03T09:10:25;11.52;;;4.88;;
11090;SDS011;5599;52.210;21.046;2022-11-03T09:13:01;9.20;;;5.40;;
11090;SDS011;5599;52.210;21.046;2022-11-03T09:15:34;9.43;;;5.00;;
11090;SDS011;5599;52.210;21.046;2022-11-03T09:18:05;13.07;;;4.88;;
11090;SDS011;5599;52.210;21.046;2022-11-03T09:20:36;11.40;;;5.13;;
11090;SDS011;5599;52.210;21.046;2022-11-03T09:23:05;10.20;;;4.57;;
11090;SDS011;5599;52.210;21.046;2022-11-03T09:25:35;10.65;;;4.38;;
11090;SDS011;5599;52.210;21.046;2022-11-03T09:28:05;6.10;;;4.38;;
11090;SDS011;5599;52.210;21.046;2022-11-03T09:30:35;11.35;;;5.00;;
11090;SDS011;5599;52.210;21.046;2022-11-03T09:33:13;9.95;;;5.10;;
11090;SDS011;5599;52.210;21.046;2022-11-03T09:35:44;8.30;;;4.38;;
11090;SDS011;5599;52.210;21.046;2022-11-03T09:38:14;10.32;;;4.93;;
11090;SDS011;5599;52.210;21.046;2022-11-03T09:40:43;8.85;;;4.60;;
11090;SDS011;5599;52.210;21.046;2022-11-03T09:43:14;6.75;;;4.10;;
11090;SDS011;5599;52.210;21.046;2022-11-03T09:45:44;7.82;;;3.95;;
11090;SDS011;5599;52.210;21.046;2022-11-03T09:48:14;9.15;;;3.83;;
11090;SDS011;5599;52.210;21.046;2022-11-03T09:50:45;11.05;;;4.03;;
11090;SDS011;5599;52.210;21.046;2022-11-03T09:53:21;11.30;;;4.22;;
11090;SDS011;5599;52.210;21.046;2022-11-03T09:55:52;6.80;;;3.92;;
11090;SDS011;5599;52.210;21.046;2022-11-03T09:58:23;10.98;;;4.15;;
11090;SDS011;5599;52.210;21.046;2022-11-03T10:00:55;11.20;;;4.22;;
11090;SDS011;5599;52.210;21.046;2022-11-03T10:03:25;7.93;;;4.10;;
11090;SDS011;5599;52.210;21.046;2022-11-03T10:05:56;8.77;;;4.50;;
11090;SDS011;5599;52.210;21.046;2022-11-03T10:08:27;8.90;;;4.60;;
11090;SDS011;5599;52.210;21.046;2022-11-03T10:10:59;9.02;;;4.13;;
11090;SDS011;5599;52.210;21.046;2022-11-03T10:13:30;9.27;;;4.68;;
11090;SDS011;5599;52.210;21.046;2022-11-03T10:16:04;8.88;;;4.70;;
11090;SDS011;5599;52.210;21.046;2022-11-03T10:18:35;10.80;;;4.50;;
11090;SDS011;5599;52.210;21.046;2022-11-03T10:21:15;11.52;;;4.97;;
11090;SDS011;5599;52.210;21.046;2022-11-03T10:23:46;15.85;;;4.65;;
11090;SDS011;5599;52.210;21.046;2022-11-03T10:26:17;10.63;;;4.63;;
11090;SDS011;5599;52.210;21.046;2022-11-03T10:31:36;8.30;;;4.05;;
11090;SDS011;5599;52.210;21.046;2022-11-03T10:34:21;7.60;;;4.40;;
11090;SDS011;5599;52.210;21.046;2022-11-03T10:39:51;10.75;;;4.60;;
11090;SDS011;5599;52.210;21.046;2022-11-03T10:42:22;10.10;;;4.50;;
11090;SDS011;5599;52.210;21.046;2022-11-03T10:45:10;16.33;;;4.72;;
11090;SDS011;5599;52.210;21.046;2022-11-03T10:47:44;6.88;;;3.88;;
11090;SDS011;5599;52.210;21.046;2022-11-03T10:50:27;9.13;;;4.20;;
11090;SDS011;5599;52.210;21.046;2022-11-03T10:52:59;7.90;;;3.80;;
11090;SDS011;5599;52.210;21.046;2022-11-03T10:55:29;9.07;;;3.97;;
11090;SDS011;5599;52.210;21.046;2022-11-03T10:57:59;9.13;;;3.67;;
11090;SDS011;5599;52.210;21.046;2022-11-03T11:00:28;7.55;;;3.22;;
11090;SDS011;5599;52.210;21.046;2022-11-03T11:02:58;7.07;;;3.00;;
11090;SDS011;5599;52.210;21.046;2022-11-03T11:05:28;13.27;;;3.40;;
11090;SDS011;5599;52.210;21.046;2022-11-03T11:07:59;8.32;;;3.40;;
11090;SDS011;5599;52.210;21.046;2022-11-03T11:10:29;11.70;;;3.80;;
11090;SDS011;5599;52.210;21.046;2022-11-03T11:13:02;13.90;;;3.40;;
11090;SDS011;5599;52.210;21.046;2022-11-03T11:15:34;10.75;;;3.22;;
11090;SDS011;5599;52.210;21.046;2022-11-03T11:18:06;9.68;;;2.80;;
11090;SDS011;5599;52.210;21.046;2022-11-03T11:20:36;7.43;;;2.95;;
11090;SDS011;5599;52.210;21.046;2022-11-03T11:35:15;5.88;;;3.10;;
11090;SDS011;5599;52.210;21.046;2022-11-03T11:37:46;9.45;;;2.60;;
11090;SDS011;5599;52.210;21.046;2022-11-03T11:40:48;6.90;;;2.85;;
11090;SDS011;5599;52.210;21.046;2022-11-03T11:43:27;6.80;;;2.80;;
11090;SDS011;5599;52.210;21.046;2022-11-03T11:49:16;5.13;;;2.80;;
11090;SDS011;5599;52.210;21.046;2022-11-03T11:51:55;9.38;;;2.42;;
11090;SDS011;5599;52.210;21.046;2022-11-03T11:54:29;11.77;;;3.13;;
11090;SDS011;5599;52.210;21.046;2022-11-03T11:56:59;9.75;;;2.75;;
11090;SDS011;5599;52.210;21.046;2022-11-03T11:59:30;5.00;;;2.47;;
11090;SDS011;5599;52.210;21.046;2022-11-03T12:01:59;7.40;;;2.47;;
11090;SDS011;5599;52.210;21.046;2022-11-03T12:04:30;6.15;;;2.25;;
11090;SDS011;5599;52.210;21.046;2022-11-03T12:07:00;5.55;;;2.70;;
11090;SDS011;5599;52.210;21.046;2022-11-03T12:09:30;9.15;;;4.05;;
11090;SDS011;5599;52.210;21.046;2022-11-03T12:12:00;6.80;;;2.38;;
11090;SDS011;5599;52.210;21.046;2022-11-03T12:14:36;5.82;;;2.22;;
11090;SDS011;5599;52.210;21.046;2022-11-03T12:20:05;8.30;;;2.38;;
11090;SDS011;5599;52.210;21.046;2022-11-03T12:23:02;6.57;;;2.90;;
11090;SDS011;5599;52.210;21.046;2022-11-03T12:25:33;6.80;;;2.60;;
11090;SDS011;5599;52.210;21.046;2022-11-03T12:28:03;6.38;;;2.90;;
11090;SDS011;5599;52.210;21.046;2022-11-03T12:30:34;6.72;;;2.47;;
11090;SDS011;5599;52.210;21.046;2022-11-03T12:33:06;9.13;;;2.60;;
11090;SDS011;5599;52.210;21.046;2022-11-03T12:35:36;7.85;;;2.60;;
11090;SDS011;5599;52.210;21.046;2022-11-03T12:38:06;5.10;;;2.45;;
11090;SDS011;5599;52.210;21.046;2022-11-03T12:40:35;5.88;;;2.20;;
11090;SDS011;5599;52.210;21.046;2022-11-03T12:43:05;9.07;;;3.00;;
11090;SDS011;5599;52.210;21.046;2022-11-03T12:45:37;11.23;;;2.67;;
11090;SDS011;5599;52.210;21.046;2022-11-03T12:48:07;8.23;;;2.65;;
11090;SDS011;5599;52.210;21.046;2022-11-03T12:50:37;5.05;;;2.53;;
11090;SDS011;5599;52.210;21.046;2022-11-03T12:53:07;4.40;;;2.92;;
11090;SDS011;5599;52.210;21.046;2022-11-03T12:55:36;6.03;;;2.53;;
11090;SDS011;5599;52.210;21.046;2022-11-03T12:58:10;6.95;;;2.70;;
11090;SDS011;5599;52.210;21.046;2022-11-03T13:00:41;9.23;;;2.92;;
11090;SDS011;5599;52.210;21.046;2022-11-03T13:03:20;6.07;;;2.50;;
11090;SDS011;5599;52.210;21.046;2022-11-03T13:05:50;8.43;;;2.63;;
11090;SDS011;5599;52.210;21.046;2022-11-03T13:08:19;4.85;;;2.30;;
11090;SDS011;5599;52.210;21.046;2022-11-03T13:10:49;4.90;;;2.20;;
11090;SDS011;5599;52.210;21.046;2022-11-03T13:13:18;6.80;;;2.55;;
11090;SDS011;5599;52.210;21.046;2022-11-03T13:15:49;5.70;;;2.30;;
11090;SDS011;5599;52.210;21.046;2022-11-03T13:18:19;6.65;;;2.55;;
11090;SDS011;5599;52.210;21.046;2022-11-03T13:20:48;5.65;;;2.53;;
11090;SDS011;5599;52.210;21.046;2022-11-03T13:23:19;6.50;;;2.95;;
11090;SDS011;5599;52.210;21.046;2022-11-03T13:25:49;5.55;;;2.42;;
11090;SDS011;5599;52.210;21.046;2022-11-03T13:28:18;11.88;;;2.90;;
11090;SDS011;5599;52.210;21.046;2022-11-03T13:30:49;7.35;;;2.88;;
11090;SDS011;5599;52.210;21.046;2022-11-03T13:33:18;6.00;;;2.45;;
11090;SDS011;5599;52.210;21.046;2022-11-03T13:35:47;6.22;;;2.53;;
11090;SDS011;5599;52.210;21.046;2022-11-03T13:38:17;6.00;;;2.58;;
11090;SDS011;5599;52.210;21.046;2022-11-03T13:40:47;8.63;;;2.50;;
11090;SDS011;5599;52.210;21.046;2022-11-03T13:43:25;8.00;;;2.38;;
11090;SDS011;5599;52.210;21.046;2022-11-03T13:45:56;5.68;;;2.63;;
11090;SDS011;5599;52.210;21.046;2022-11-03T13:48:28;3.80;;;2.25;;
11090;SDS011;5599;52.210;21.046;2022-11-03T13:51:18;7.05;;;2.70;;
11090;SDS011;5599;52.210;21.046;2022-11-03T13:53:47;7.72;;;2.80;;
11090;SDS011;5599;52.210;21.046;2022-11-03T13:56:37;6.03;;;2.60;;
11090;SDS011;5599;52.210;21.046;2022-11-03T13:59:26;9.52;;;3.10;;
11090;SDS011;5599;52.210;21.046;2022-11-03T14:01:57;7.32;;;2.97;;
11090;SDS011;5599;52.210;21.046;2022-11-03T14:04:47;9.50;;;2.47;;
11090;SDS011;5599;52.210;21.046;2022-11-03T14:07:17;6.25;;;2.42;;
11090;SDS011;5599;52.210;21.046;2022-11-03T14:09:46;6.53;;;2.55;;
11090;SDS011;5599;52.210;21.046;2022-11-03T14:12:15;5.70;;;2.60;;
11090;SDS011;5599;52.210;21.046;2022-11-03T14:15:03;7.30;;;2.75;;
11090;SDS011;5599;52.210;21.046;2022-11-03T14:17:36;6.78;;;2.53;;
11090;SDS011;5599;52.210;21.046;2022-11-03T14:20:07;9.55;;;2.72;;
11090;SDS011;5599;52.210;21.046;2022-11-03T14:22:39;6.60;;;2.80;;
11090;SDS011;5599;52.210;21.046;2022-11-03T14:25:08;6.00;;;2.70;;
11090;SDS011;5599;52.210;21.046;2022-11-03T14:27:38;10.48;;;2.60;;
11090;SDS011;5599;52.210;21.046;2022-11-03T14:30:08;6.60;;;2.60;;
11090;SDS011;5599;52.210;21.046;2022-11-03T14:32:40;6.13;;;2.55;;
11090;SDS011;5599;52.210;21.046;2022-11-03T14:35:10;8.90;;;2.80;;
11090;SDS011;5599;52.210;21.046;2022-11-03T14:37:39;6.85;;;2.55;;
11090;SDS011;5599;52.210;21.046;2022-11-03T14:40:09;4.83;;;2.60;;
11090;SDS011;5599;52.210;21.046;2022-11-03T14:42:59;9.23;;;3.13;;
11090;SDS011;5599;52.210;21.046;2022-11-03T14:45:27;7.57;;;2.73;;
11090;SDS011;5599;52.210;21.046;2022-11-03T14:48:05;7.50;;;2.80;;
11090;SDS011;5599;52.210;21.046;2022-11-03T14:50:35;9.32;;;3.45;;
11090;SDS011;5599;52.210;21.046;2022-11-03T14:53:04;11.87;;;3.33;;
11090;SDS011;5599;52.210;21.046;2022-11-03T14:55:34;9.10;;;3.20;;
11090;SDS011;5599;52.210;21.046;2022-11-03T14:58:04;6.10;;;2.67;;
11090;SDS011;5599;52.210;21.046;2022-11-03T15:00:35;9.10;;;3.10;;
11090;SDS011;5599;52.210;21.046;2022-11-03T15:03:06;7.30;;;2.83;;
11090;SDS011;5599;52.210;21.046;2022-11-03T15:05:35;9.80;;;3.87;;
11090;SDS011;5599;52.210;21.046;2022-11-03T15:08:11;6.90;;;3.47;;
11090;SDS011;5599;52.210;21.046;2022-11-03T15:10:42;7.50;;;3.23;;
11090;SDS011;5599;52.210;21.046;2022-11-03T15:13:12;8.03;;;3.03;;
11090;SDS011;5599;52.210;21.046;2022-11-03T15:15:42;7.10;;;3.47;;
11090;SDS011;5599;52.210;21.046;2022-11-03T15:18:14;8.37;;;3.70;;
11090;SDS011;5599;52.210;21.046;2022-11-03T15:20:44;7.77;;;4.43;;
11090;SDS011;5599;52.210;21.046;2022-11-03T15:23:14;14.03;;;3.63;;
11090;SDS011;5599;52.210;21.046;2022-11-03T15:26:04;9.90;;;4.50;;
11090;SDS011;5599;52.210;21.046;2022-11-03T15:28:33;11.33;;;4.47;;
11090;SDS011;5599;52.210;21.046;2022-11-03T15:31:03;10.70;;;4.67;;
11090;SDS011;5599;52.210;21.046;2022-11-03T15:33:34;14.63;;;5.67;;
11090;SDS011;5599;52.210;21.046;2022-11-03T15:36:04;15.07;;;6.23;;
11090;SDS011;5599;52.210;21.046;2022-11-03T15:38:35;10.27;;;5.33;;